Other Surface Observations
Issued by NWS Los Angeles, CA

Home | Current Version | Previous Version | Text Only | Print | Product List | Glossary On
Versions: 1
000
SXUS56 KLOX 132048
OSOLOX

OFFSHORE OIL PLATFORM HARVEST WEATHER
NATIONAL WEATHER SERVICE OXNARD CA
145 PM PDT SUN JUL 13 2014

OBSERVATION FROM DRILLING RIG "HARVEST"
LOCATION 34 DEG 28 MIN N...120 DEG 41 MIN W...12 MILES W
PT CONCEPTION ANEMOMETER LOCATED 163 FEET ABOVE SEA LEVEL.
WIND SENSOR IS PARTIALLY BLOCKED BY OIL RIG STRUCTURE.

SPECI 132040Z 35020KT 10SM SCT006 BKN035 17/14 A2994 RMKS SEAS 6 TO 8
FEET

$$











































































































































































































































































































USA.gov is the U.S. government's official web portal to all federal, state and local government web resources and services.